Time;durP1;ratioP1;P1;durP2;ratioP2;P2;SDS_P1;SDS_P2;PMS_P1;PMS_P2;Temp;Humidity;BMP_temperature;BMP_pressure;BME280_temperature;BME280_humidity;BME280_pressure;Samples;Min_cycle;Max_cycle;Signal;HPM_P1;HPM_P2
2022/07/22 00:00:13;;;;;;;17.20;9.38;;;17.00;99.90;;;;;;5031043;28;20026;-60
2022/07/22 00:02:39;;;;;;;21.23;10.30;;;16.90;99.90;;;;;;5037534;28;20021;-60
2022/07/22 00:05:06;;;;;;;18.92;9.68;;;16.90;99.90;;;;;;5030449;28;20026;-60
2022/07/22 00:07:31;;;;;;;20.30;10.13;;;17.30;99.90;;;;;;5025476;28;20029;-60
2022/07/22 00:09:57;;;;;;;20.25;10.00;;;17.70;99.90;;;;;;5029511;28;20026;-60
2022/07/22 00:12:23;;;;;;;19.23;10.23;;;17.00;99.90;;;;;;5034756;28;20057;-60
2022/07/22 00:14:48;;;;;;;20.25;9.35;;;16.30;99.90;;;;;;5037705;28;20385;-61
2022/07/22 00:17:14;;;;;;;18.83;10.10;;;17.10;99.90;;;;;;5037223;28;20100;-60
2022/07/22 00:19:39;;;;;;;18.02;10.25;;;17.10;99.90;;;;;;5036444;28;20465;-60
2022/07/22 00:22:05;;;;;;;20.52;9.80;;;17.10;99.90;;;;;;5025341;28;20040;-60
2022/07/22 00:24:31;;;;;;;20.08;10.68;;;17.30;99.90;;;;;;5032981;28;20025;-60
2022/07/22 00:26:56;;;;;;;18.63;10.25;;;;;;;;;;5036626;28;20024;-61
2022/07/22 00:29:22;;;;;;;17.73;11.05;;;17.30;99.90;;;;;;5036698;28;20025;-60
2022/07/22 00:31:48;;;;;;;23.70;10.90;;;17.40;99.90;;;;;;5038932;28;20640;-60
2022/07/22 00:34:13;;;;;;;20.23;11.07;;;17.30;99.90;;;;;;5028628;28;20515;-60
2022/07/22 00:36:39;;;;;;;23.60;12.25;;;17.30;99.90;;;;;;5037700;28;20025;-60
2022/07/22 00:39:04;;;;;;;18.38;11.68;;;17.30;99.90;;;;;;5025811;28;20029;-60
2022/07/22 00:41:30;;;;;;;22.00;12.35;;;17.30;99.90;;;;;;5053384;28;20065;-61
2022/07/22 00:44:02;;;;;;;18.40;12.18;;;17.40;99.90;;;;;;5026753;28;20018;-60
2022/07/22 00:46:28;;;;;;;22.92;13.20;;;17.30;99.90;;;;;;5033697;28;20022;-61
2022/07/22 00:48:54;;;;;;;23.02;13.50;;;17.10;99.90;;;;;;5026127;28;20026;-60
2022/07/22 00:51:22;;;;;;;21.02;13.88;;;17.30;99.90;;;;;;5032305;28;20083;-61
2022/07/22 00:53:48;;;;;;;23.48;13.27;;;17.00;99.90;;;;;;5025346;28;20017;-60
2022/07/22 00:56:15;;;;;;;26.35;14.90;;;17.40;99.90;;;;;;5038045;28;20036;-60
2022/07/22 00:58:42;;;;;;;25.27;15.02;;;17.40;99.90;;;;;;5030042;28;20546;-61
2022/07/22 01:01:08;;;;;;;22.58;14.40;;;17.30;99.90;;;;;;5028719;28;20033;-60
2022/07/22 01:03:33;;;;;;;20.45;14.20;;;17.20;99.90;;;;;;5035087;28;20041;-60
2022/07/22 01:05:59;;;;;;;26.45;13.93;;;17.00;99.90;;;;;;5028055;28;20029;-61
2022/07/22 01:08:24;;;;;;;20.70;13.35;;;17.10;99.90;;;;;;5028901;28;20393;-60
2022/07/22 01:10:51;;;;;;;23.13;13.98;;;17.20;99.90;;;;;;5030815;28;20026;-60
2022/07/22 01:13:16;;;;;;;24.65;14.02;;;17.20;99.90;;;;;;5033754;28;20057;-60
2022/07/22 01:15:42;;;;;;;25.85;14.52;;;17.10;99.90;;;;;;5034685;28;20571;-60
2022/07/22 01:18:07;;;;;;;23.08;14.75;;;16.90;99.90;;;;;;5037564;28;20369;-61
2022/07/22 01:20:37;;;;;;;25.23;15.00;;;16.80;99.90;;;;;;5030399;28;20028;-60
2022/07/22 01:23:02;;;;;;;19.50;13.27;;;16.80;99.90;;;;;;5028769;28;20152;-60
2022/07/22 01:25:28;;;;;;;20.20;14.40;;;17.10;99.90;;;;;;5025560;28;20029;-60
2022/07/22 01:27:54;;;;;;;21.25;13.82;;;17.20;99.90;;;;;;5029344;28;20030;-60
2022/07/22 01:30:19;;;;;;;19.42;13.50;;;17.30;99.90;;;;;;5040430;28;20036;-60
2022/07/22 01:32:45;;;;;;;22.55;13.68;;;17.20;99.90;;;;;;5040415;28;20047;-60
2022/07/22 01:35:10;;;;;;;19.33;13.13;;;17.20;99.90;;;;;;5024181;28;20033;-60
2022/07/22 01:37:36;;;;;;;17.25;13.05;;;17.20;99.90;;;;;;5028440;28;20036;-60
2022/07/22 01:40:03;;;;;;;18.92;12.70;;;17.00;99.90;;;;;;5032189;28;20117;-60
2022/07/22 01:42:28;;;;;;;19.60;13.00;;;17.00;99.90;;;;;;5032580;28;20084;-60
2022/07/22 01:44:54;;;;;;;20.02;13.27;;;16.70;99.90;;;;;;5030044;28;20064;-60
2022/07/22 01:47:20;;;;;;;23.58;12.60;;;16.70;99.90;;;;;;5034922;28;20060;-60
2022/07/22 01:49:45;;;;;;;20.02;12.23;;;16.80;99.90;;;;;;5023334;28;20104;-60
2022/07/22 01:52:11;;;;;;;19.38;11.85;;;16.80;99.90;;;;;;5028612;28;20029;-60
2022/07/22 01:54:36;;;;;;;14.95;10.80;;;16.90;99.90;;;;;;5029064;28;20028;-60
2022/07/22 01:57:03;;;;;;;17.02;9.88;;;16.90;99.90;;;;;;5030029;28;20714;-60
2022/07/22 01:59:28;;;;;;;17.52;10.45;;;16.70;99.90;;;;;;5029872;28;20064;-60
2022/07/22 02:01:54;;;;;;;16.02;9.90;;;16.70;99.90;;;;;;5029351;28;20061;-60
2022/07/22 02:04:20;;;;;;;19.75;9.23;;;16.80;99.90;;;;;;5026170;28;20025;-60
2022/07/22 02:06:45;;;;;;;21.23;9.93;;;16.60;99.90;;;;;;5026017;28;20025;-60
2022/07/22 02:09:11;;;;;;;17.05;9.77;;;16.60;99.90;;;;;;5028825;28;20652;-60
2022/07/22 02:11:37;;;;;;;19.13;9.82;;;16.50;99.90;;;;;;5026609;28;20056;-60
2022/07/22 02:14:02;;;;;;;18.98;9.77;;;16.50;99.90;;;;;;5038033;28;20400;-60
2022/07/22 02:16:28;;;;;;;15.70;9.10;;;16.40;99.90;;;;;;5029052;28;20458;-60
2022/07/22 02:18:54;;;;;;;21.27;10.05;;;16.50;99.90;;;;;;5049616;28;20019;-60
2022/07/22 02:21:19;;;;;;;19.73;9.20;;;16.60;99.90;;;;;;5027952;28;20101;-61
2022/07/22 02:23:45;;;;;;;17.25;8.85;;;16.50;99.90;;;;;;5028721;28;20108;-60
2022/07/22 02:26:11;;;;;;;21.65;9.40;;;16.50;99.90;;;;;;5026006;28;20021;-60
2022/07/22 02:28:36;;;;;;;16.45;8.93;;;16.30;99.90;;;;;;5032105;28;20021;-61
2022/07/22 02:31:02;;;;;;;17.45;9.85;;;16.40;99.90;;;;;;5023815;28;20041;-60
2022/07/22 02:33:29;;;;;;;19.17;9.35;;;16.70;99.90;;;;;;5038630;28;20534;-61
2022/07/22 02:35:55;;;;;;;19.08;9.25;;;16.50;99.90;;;;;;5024373;28;20025;-60
2022/07/22 02:38:21;;;;;;;19.83;10.10;;;16.50;99.90;;;;;;5033515;28;20203;-61
2022/07/22 02:40:46;;;;;;;17.73;9.13;;;16.60;99.90;;;;;;5032539;28;20048;-61
2022/07/22 02:43:12;;;;;;;22.02;9.75;;;16.70;99.90;;;;;;5030473;28;20033;-61
2022/07/22 02:45:37;;;;;;;16.95;9.18;;;16.80;99.90;;;;;;5034352;28;20044;-61
2022/07/22 02:48:03;;;;;;;15.63;9.07;;;16.80;99.90;;;;;;5033189;28;20052;-61
2022/07/22 02:50:29;;;;;;;28.50;9.80;;;16.70;99.90;;;;;;5030367;28;20037;-61
2022/07/22 02:52:54;;;;;;;19.15;9.50;;;16.80;99.90;;;;;;5033754;28;20022;-61
2022/07/22 02:55:20;;;;;;;15.10;8.55;;;16.80;99.90;;;;;;5032154;28;20056;-61
2022/07/22 02:57:45;;;;;;;19.40;9.52;;;16.90;99.90;;;;;;5031487;28;20052;-61
2022/07/22 03:00:12;;;;;;;16.92;9.05;;;17.00;99.90;;;;;;5036227;28;20082;-60
2022/07/22 03:02:38;;;;;;;22.20;9.07;;;17.10;99.90;;;;;;5035332;28;20469;-61
2022/07/22 03:05:05;;;;;;;19.27;9.60;;;17.00;99.90;;;;;;5031187;28;20062;-61
2022/07/22 03:07:31;;;;;;;24.13;9.95;;;16.90;99.90;;;;;;5029849;28;20676;-61
2022/07/22 03:10:00;;;;;;;17.60;8.68;;;17.00;99.90;;;;;;5034961;28;20028;-61
2022/07/22 03:12:26;;;;;;;20.02;9.00;;;16.50;99.90;;;;;;5032562;28;20625;-61
2022/07/22 03:14:51;;;;;;;14.65;8.50;;;16.60;99.90;;;;;;5046026;28;20306;-61
2022/07/22 03:17:17;;;;;;;20.13;9.48;;;16.80;99.90;;;;;;5040164;28;20101;-61
2022/07/22 03:19:42;;;;;;;16.80;8.73;;;16.80;99.90;;;;;;5038855;28;20070;-61
2022/07/22 03:22:08;;;;;;;16.73;8.68;;;17.00;99.90;;;;;;5027528;28;20025;-61
2022/07/22 03:24:34;;;;;;;20.83;8.75;;;16.90;99.90;;;;;;5033938;28;20039;-61
2022/07/22 03:26:59;;;;;;;17.05;8.27;;;17.00;99.90;;;;;;5032732;28;20040;-61
2022/07/22 03:29:25;;;;;;;16.80;9.18;;;17.00;99.90;;;;;;5031166;28;20152;-61
2022/07/22 03:31:50;;;;;;;19.67;8.27;;;17.10;99.90;;;;;;5038767;28;20060;-61
2022/07/22 03:34:16;;;;;;;13.82;8.18;;;17.10;99.90;;;;;;5031864;28;20086;-61
2022/07/22 03:36:42;;;;;;;16.23;8.35;;;17.10;99.90;;;;;;5030759;28;20076;-61
2022/07/22 03:39:07;;;;;;;14.02;7.75;;;17.30;99.90;;;;;;5029001;28;20053;-61
2022/07/22 03:41:35;;;;;;;20.20;8.65;;;17.10;99.90;;;;;;5025972;28;20503;-61
2022/07/22 03:44:01;;;;;;;17.45;8.07;;;17.20;99.90;;;;;;5032815;28;20025;-61
2022/07/22 03:46:27;;;;;;;16.35;7.40;;;17.20;99.90;;;;;;5035439;28;20443;-61
2022/07/22 03:48:52;;;;;;;12.57;6.97;;;17.00;99.90;;;;;;5030877;28;20038;-61
2022/07/22 03:51:21;;;;;;;14.10;6.22;;;16.90;99.90;;;;;;5031609;28;20029;-61
2022/07/22 03:53:46;;;;;;;14.20;6.28;;;16.60;99.90;;;;;;5034212;28;20032;-61
2022/07/22 03:56:12;;;;;;;10.63;6.35;;;16.60;99.90;;;;;;5032261;28;20029;-61
2022/07/22 03:58:37;;;;;;;13.43;6.78;;;16.70;99.90;;;;;;5028832;28;20033;-61
2022/07/22 04:01:03;;;;;;;15.15;6.00;;;16.80;99.90;;;;;;5030611;28;20026;-61
2022/07/22 04:03:29;;;;;;;16.70;6.15;;;16.60;99.90;;;;;;5032844;28;20026;-61
2022/07/22 04:05:55;;;;;;;13.73;6.20;;;16.60;99.90;;;;;;5035836;28;20017;-61
2022/07/22 04:08:21;;;;;;;16.05;5.28;;;16.70;99.90;;;;;;5030974;28;20037;-61
2022/07/22 04:10:46;;;;;;;14.77;5.60;;;16.60;99.90;;;;;;5032852;28;20537;-60
2022/07/22 04:13:12;;;;;;;10.45;5.20;;;16.50;99.90;;;;;;5026340;28;20038;-61
2022/07/22 04:15:37;;;;;;;11.52;4.35;;;16.50;99.90;;;;;;5032884;28;20170;-60
2022/07/22 04:18:03;;;;;;;12.55;4.22;;;16.50;99.90;;;;;;5042676;28;20016;-61
2022/07/22 04:20:29;;;;;;;10.63;4.32;;;16.40;99.90;;;;;;5038003;28;20025;-60
2022/07/22 04:22:54;;;;;;;14.52;4.18;;;16.60;99.90;;;;;;5031506;28;20021;-61
2022/07/22 04:25:20;;;;;;;10.73;4.10;;;16.60;99.90;;;;;;5034574;28;20995;-61
2022/07/22 04:27:46;;;;;;;10.27;4.20;;;16.60;99.90;;;;;;5031932;28;20131;-61
2022/07/22 04:30:11;;;;;;;8.50;3.92;;;16.50;99.90;;;;;;5030306;28;20033;-61
2022/07/22 04:32:37;;;;;;;14.45;4.15;;;16.60;99.90;;;;;;5042717;28;20033;-61
2022/07/22 04:35:04;;;;;;;11.75;3.58;;;16.70;99.90;;;;;;5027939;28;20695;-61
2022/07/22 04:37:30;;;;;;;11.93;3.72;;;16.60;99.90;;;;;;5030685;28;20192;-61
2022/07/22 04:39:56;;;;;;;14.07;4.20;;;16.50;99.90;;;;;;5028037;28;20770;-61
2022/07/22 04:42:21;;;;;;;11.13;3.90;;;16.50;99.90;;;;;;5026745;28;20021;-61
2022/07/22 04:44:47;;;;;;;8.85;3.70;;;16.50;99.90;;;;;;5027714;28;20030;-61
2022/07/22 04:47:13;;;;;;;8.75;3.42;;;16.60;99.90;;;;;;5031109;28;20091;-60
2022/07/22 04:49:38;;;;;;;13.95;4.53;;;16.80;99.90;;;;;;5032645;28;20159;-61
2022/07/22 04:52:04;;;;;;;11.10;3.65;;;16.70;99.90;;;;;;5030605;28;20028;-61
2022/07/22 04:54:30;;;;;;;15.27;4.28;;;16.80;99.90;;;;;;5027628;28;20057;-61
2022/07/22 04:56:55;;;;;;;10.20;3.95;;;16.90;99.90;;;;;;5028851;28;20028;-60
2022/07/22 04:59:21;;;;;;;14.60;4.10;;;17.00;99.90;;;;;;5033448;28;20017;-61
2022/07/22 05:01:46;;;;;;;15.10;4.22;;;17.10;99.90;;;;;;5036454;28;20024;-61
2022/07/22 05:04:12;;;;;;;9.15;4.22;;;17.10;99.90;;;;;;5026930;28;20891;-61
2022/07/22 05:06:38;;;;;;;12.75;3.90;;;17.20;99.90;;;;;;5032378;28;20037;-61
2022/07/22 05:09:03;;;;;;;14.68;4.10;;;17.40;99.90;;;;;;5030303;28;20099;-61
2022/07/22 05:11:29;;;;;;;13.50;4.25;;;17.40;99.90;;;;;;5028460;28;20087;-61
2022/07/22 05:13:55;;;;;;;11.48;4.35;;;17.30;99.90;;;;;;5027502;28;20036;-61
2022/07/22 05:16:21;;;;;;;9.50;3.80;;;17.30;99.90;;;;;;5034780;28;20042;-61
2022/07/22 05:18:46;;;;;;;10.80;4.45;;;17.30;99.90;;;;;;5049398;28;20403;-61
2022/07/22 05:21:12;;;;;;;16.95;4.35;;;17.40;99.90;;;;;;5034629;28;20434;-61
2022/07/22 05:23:37;;;;;;;9.77;4.22;;;17.30;99.90;;;;;;5031211;28;20033;-60
2022/07/22 05:26:04;;;;;;;12.43;4.30;;;17.30;99.90;;;;;;5028085;28;20084;-61
2022/07/22 05:28:30;;;;;;;12.95;4.60;;;17.30;99.90;;;;;;5027727;28;20191;-61
2022/07/22 05:30:55;;;;;;;10.35;4.30;;;17.30;99.90;;;;;;5026654;28;20136;-61
2022/07/22 05:33:21;;;;;;;9.95;4.05;;;17.10;99.90;;;;;;5030307;28;20635;-61
2022/07/22 05:35:47;;;;;;;11.20;4.22;;;17.20;99.90;;;;;;5026559;28;20034;-61
2022/07/22 05:38:12;;;;;;;15.02;4.70;;;17.30;99.90;;;;;;5031810;28;20026;-61
2022/07/22 05:40:38;;;;;;;8.88;4.10;;;17.30;99.90;;;;;;5026373;28;20091;-61
2022/07/22 05:43:03;;;;;;;7.15;3.63;;;17.40;99.90;;;;;;5028913;28;20022;-61
2022/07/22 05:45:29;;;;;;;8.57;3.88;;;17.30;99.90;;;;;;5026540;28;20033;-61
2022/07/22 05:47:55;;;;;;;10.35;3.60;;;17.40;99.90;;;;;;5037617;28;20028;-60
2022/07/22 05:50:20;;;;;;;12.70;3.60;;;17.20;99.90;;;;;;5028161;28;20039;-61
2022/07/22 05:52:46;;;;;;;10.52;3.80;;;17.30;99.90;;;;;;5033502;28;20489;-60
2022/07/22 05:55:11;;;;;;;9.73;3.85;;;17.30;99.90;;;;;;5035603;28;20421;-61
2022/07/22 05:57:37;;;;;;;15.15;3.92;;;17.10;99.90;;;;;;5028384;28;20068;-61
2022/07/22 06:00:06;;;;;;;10.90;4.15;;;17.00;99.90;;;;;;5025498;28;20053;-61
2022/07/22 06:02:32;;;;;;;8.27;3.72;;;17.20;99.90;;;;;;5039797;28;20029;-61
2022/07/22 06:05:00;;;;;;;11.65;3.92;;;17.10;99.90;;;;;;5043037;28;20128;-61
2022/07/22 06:07:26;;;;;;;12.02;4.03;;;17.10;99.90;;;;;;5043842;28;20416;-61
2022/07/22 06:09:52;;;;;;;8.43;3.70;;;16.90;99.90;;;;;;5034698;28;20052;-61
2022/07/22 06:12:17;;;;;;;8.35;3.05;;;17.00;99.90;;;;;;5028579;28;20068;-61
2022/07/22 06:14:43;;;;;;;12.07;4.38;;;16.90;99.90;;;;;;5040789;28;20038;-60
2022/07/22 06:17:09;;;;;;;14.35;4.03;;;17.00;99.90;;;;;;5042610;28;20401;-61
2022/07/22 06:19:35;;;;;;;12.80;3.90;;;17.00;99.90;;;;;;5045569;28;20125;-61
2022/07/22 06:22:00;;;;;;;10.30;3.75;;;17.10;99.90;;;;;;5035300;28;20053;-62
2022/07/22 06:24:26;;;;;;;13.50;3.75;;;17.30;99.90;;;;;;5029969;28;20030;-61
2022/07/22 06:26:52;;;;;;;12.30;4.32;;;17.30;99.90;;;;;;5037280;28;20029;-61
2022/07/22 06:29:17;;;;;;;12.82;3.83;;;17.50;99.90;;;;;;5032493;28;20373;-61
2022/07/22 06:31:43;;;;;;;14.70;4.00;;;17.70;99.90;;;;;;5031810;28;20052;-61
2022/07/22 06:34:08;;;;;;;15.73;4.10;;;17.60;99.90;;;;;;5033650;28;20053;-61
2022/07/22 06:36:34;;;;;;;9.18;4.40;;;17.80;99.90;;;;;;5030505;28;20033;-61
2022/07/22 06:39:00;;;;;;;10.48;3.92;;;17.80;99.90;;;;;;5039542;28;20036;-61
2022/07/22 06:41:26;;;;;;;12.02;3.90;;;18.00;99.90;;;;;;5028455;28;20140;-61
2022/07/22 06:43:52;;;;;;;13.77;3.72;;;17.90;99.90;;;;;;5032234;28;20172;-61
2022/07/22 06:46:18;;;;;;;8.20;3.05;;;17.90;99.90;;;;;;5031723;28;20465;-61
2022/07/22 06:48:43;;;;;;;11.23;3.20;;;17.80;99.90;;;;;;5040964;28;20032;-62
2022/07/22 06:51:09;;;;;;;11.15;3.97;;;17.70;99.90;;;;;;5027235;28;20037;-61
2022/07/22 06:53:35;;;;;;;14.90;3.33;;;17.60;99.90;;;;;;5030745;28;20079;-61
2022/07/22 06:56:00;;;;;;;8.55;3.30;;;17.50;99.90;;;;;;5027857;28;20084;-61
2022/07/22 06:58:26;;;;;;;6.70;2.92;;;17.60;99.90;;;;;;5033692;28;20045;-61
2022/07/22 07:00:54;;;;;;;12.40;3.55;;;17.50;99.90;;;;;;5034429;28;20415;-61
2022/07/22 07:03:20;;;;;;;6.07;3.08;;;17.50;99.90;;;;;;5038342;28;20021;-61
2022/07/22 07:05:45;;;;;;;11.27;3.55;;;17.40;99.90;;;;;;5032965;28;20036;-61
2022/07/22 07:08:11;;;;;;;8.93;3.47;;;17.40;99.90;;;;;;5035856;28;20045;-61
2022/07/22 07:10:36;;;;;;;7.80;3.55;;;17.50;99.90;;;;;;5027067;28;20424;-61
2022/07/22 07:13:02;;;;;;;10.70;3.60;;;17.70;99.90;;;;;;5028369;28;20374;-61
2022/07/22 07:15:28;;;;;;;8.43;3.35;;;17.70;99.90;;;;;;5037955;28;20656;-61
2022/07/22 07:17:56;;;;;;;8.68;3.10;;;17.70;99.90;;;;;;5043208;28;20028;-61
2022/07/22 07:20:22;;;;;;;11.88;3.63;;;17.70;99.90;;;;;;5043644;28;20100;-60
2022/07/22 07:22:47;;;;;;;11.77;3.28;;;18.10;99.90;;;;;;5036783;28;20108;-61
2022/07/22 07:25:13;;;;;;;11.40;3.38;;;18.10;99.90;;;;;;5031022;28;20021;-61
2022/07/22 07:27:39;;;;;;;7.93;3.28;;;17.90;99.90;;;;;;5028093;28;20025;-61
2022/07/22 07:30:05;;;;;;;12.98;3.45;;;17.80;99.90;;;;;;5031905;28;20036;-61
2022/07/22 07:32:31;;;;;;;7.85;3.08;;;17.80;99.90;;;;;;5031347;28;20120;-60
2022/07/22 07:34:56;;;;;;;28.75;6.72;;;17.90;99.90;;;;;;5030056;28;20396;-61
2022/07/22 07:37:22;;;;;;;13.00;3.65;;;18.00;99.90;;;;;;5026706;28;20041;-61
2022/07/22 07:39:48;;;;;;;13.25;3.60;;;18.10;99.90;;;;;;5029162;28;20117;-60
2022/07/22 07:42:13;;;;;;;10.80;3.15;;;18.00;99.90;;;;;;5028157;28;20026;-61
2022/07/22 07:44:39;;;;;;;11.90;3.20;;;17.90;99.90;;;;;;5041177;28;20024;-61
2022/07/22 07:47:05;;;;;;;12.90;2.97;;;17.80;99.90;;;;;;5034306;28;20087;-61
2022/07/22 07:49:31;;;;;;;10.27;3.22;;;17.70;99.90;;;;;;5039459;28;20079;-61
2022/07/22 07:51:56;;;;;;;9.77;3.42;;;17.90;99.90;;;;;;5026563;28;20539;-61
2022/07/22 07:54:22;;;;;;;7.57;2.83;;;18.10;99.90;;;;;;5030602;28;20114;-61
2022/07/22 07:56:47;;;;;;;11.65;3.20;;;17.90;99.90;;;;;;5045244;28;20521;-61
2022/07/22 07:59:13;;;;;;;8.50;2.85;;;17.90;99.90;;;;;;5028746;28;20029;-61
2022/07/22 08:01:39;;;;;;;8.63;2.90;;;18.10;99.90;;;;;;5040445;28;20488;-61
2022/07/22 08:04:04;;;;;;;9.15;3.00;;;18.10;99.90;;;;;;5036609;28;20045;-61
2022/07/22 08:06:30;;;;;;;9.20;3.65;;;18.10;99.90;;;;;;5028839;28;20020;-61
2022/07/22 08:08:56;;;;;;;9.05;3.13;;;18.20;99.90;;;;;;5028608;28;20049;-61
2022/07/22 08:11:22;;;;;;;11.15;3.55;;;18.20;99.90;;;;;;5030949;28;20064;-61
2022/07/22 08:13:49;;;;;;;9.68;3.03;;;18.20;99.90;;;;;;5031422;28;20354;-61
2022/07/22 08:16:15;;;;;;;9.27;3.63;;;18.20;99.90;;;;;;5038343;28;20112;-61
2022/07/22 08:18:41;;;;;;;12.32;5.10;;;18.20;99.90;;;;;;5041984;28;20034;-61
2022/07/22 08:21:06;;;;;;;11.70;5.50;;;18.30;99.90;;;;;;5035489;28;20079;-61
2022/07/22 08:23:33;;;;;;;14.00;6.15;;;18.40;99.90;;;;;;5026606;28;20405;-61
2022/07/22 08:25:58;;;;;;;12.43;5.13;;;18.50;99.90;;;;;;5039671;28;20036;-61
2022/07/22 08:28:24;;;;;;;10.45;4.97;;;18.60;99.90;;;;;;5040017;28;20384;-61
2022/07/22 08:30:50;;;;;;;17.23;5.13;;;18.70;99.90;;;;;;5036088;28;20136;-61
2022/07/22 08:33:16;;;;;;;16.42;5.75;;;18.70;99.90;;;;;;5033530;28;20091;-61
2022/07/22 08:35:42;;;;;;;12.30;4.65;;;18.70;99.90;;;;;;5033544;28;20831;-61
2022/07/22 08:38:08;;;;;;;10.90;4.50;;;18.70;99.90;;;;;;5026190;28;20026;-61
2022/07/22 08:40:33;;;;;;;16.85;5.30;;;18.70;99.90;;;;;;5032304;28;20029;-61
2022/07/22 08:43:02;;;;;;;15.07;5.45;;;18.80;99.90;;;;;;5030678;28;20036;-61
2022/07/22 08:45:31;;;;;;;10.80;5.18;;;19.00;99.90;;;;;;5030211;28;20025;-61
2022/07/22 08:47:59;;;;;;;15.65;5.38;;;18.80;99.90;;;;;;5036611;28;20082;-61
2022/07/22 08:50:25;;;;;;;9.05;4.65;;;18.90;99.90;;;;;;5030039;28;20692;-61
2022/07/22 08:52:50;;;;;;;18.15;5.25;;;19.00;99.90;;;;;;5029674;28;20024;-60
2022/07/22 08:55:16;;;;;;;9.63;4.38;;;19.00;99.90;;;;;;5026924;28;20028;-61
2022/07/22 08:57:46;;;;;;;8.88;4.63;;;18.90;99.90;;;;;;5030510;28;20033;-60
2022/07/22 09:00:14;;;;;;;11.65;4.88;;;19.00;99.90;;;;;;5027589;28;20512;-61
2022/07/22 09:02:42;;;;;;;13.05;4.75;;;19.00;99.90;;;;;;5039446;28;20265;-61
2022/07/22 09:05:10;;;;;;;11.30;4.97;;;19.10;99.90;;;;;;5025550;28;20552;-61
2022/07/22 09:07:39;;;;;;;10.85;4.38;;;19.10;99.90;;;;;;5029704;28;20814;-61
2022/07/22 09:10:08;;;;;;;10.40;4.32;;;18.90;99.90;;;;;;5031457;28;20049;-61
2022/07/22 09:12:34;;;;;;;7.55;4.40;;;18.60;99.90;;;;;;5032633;28;20017;-61
2022/07/22 09:15:02;;;;;;;9.48;4.57;;;18.10;99.90;;;;;;5029235;28;20025;-61
2022/07/22 09:17:38;;;;;;;10.77;4.90;;;18.40;99.90;;;;;;5037451;28;20022;-61
2022/07/22 09:20:18;;;;;;;10.13;4.65;;;18.50;99.90;;;;;;5032922;28;20049;-61
2022/07/22 09:22:46;;;;;;;10.63;4.47;;;18.30;99.90;;;;;;5030781;28;20499;-61
2022/07/22 09:25:33;;;;;;;10.50;4.93;;;18.30;99.90;;;;;;5040587;28;20056;-61
2022/07/22 09:28:08;;;;;;;13.40;5.15;;;18.40;99.90;;;;;;5027201;28;20028;-61
2022/07/22 09:30:38;;;;;;;9.88;4.15;;;18.40;99.90;;;;;;5034735;28;20037;-61
2022/07/22 09:33:05;;;;;;;13.50;5.15;;;18.60;99.90;;;;;;5029172;28;20105;-61
2022/07/22 09:35:31;;;;;;;9.70;5.75;;;18.80;99.90;;;;;;5033966;28;20075;-61
2022/07/22 09:38:03;;;;;;;9.48;4.80;;;19.10;99.90;;;;;;5040986;28;20025;-61
2022/07/22 09:40:34;;;;;;;8.43;3.85;;;18.70;99.90;;;;;;5035014;28;20388;-61
2022/07/22 09:43:02;;;;;;;7.00;4.15;;;18.90;99.90;;;;;;5030581;28;20610;-61
2022/07/22 09:45:30;;;;;;;7.30;3.47;;;18.90;99.90;;;;;;5030028;28;20025;-61
2022/07/22 09:47:57;;;;;;;9.98;4.53;;;19.00;99.90;;;;;;5039697;28;20415;-60
2022/07/22 09:50:29;;;;;;;10.07;4.28;;;19.10;99.90;;;;;;5038528;28;20034;-60
2022/07/22 09:52:56;;;;;;;7.95;4.28;;;19.30;99.90;;;;;;5033716;28;20080;-61
2022/07/22 09:55:24;;;;;;;6.90;3.80;;;19.30;99.90;;;;;;5031884;28;20090;-61
2022/07/22 09:57:51;;;;;;;9.93;4.90;;;19.40;99.90;;;;;;5038814;28;20017;-61
2022/07/22 10:00:20;;;;;;;7.13;3.92;;;19.50;99.90;;;;;;5032237;28;20482;-61
2022/07/22 10:02:48;;;;;;;7.78;3.72;;;20.00;99.90;;;;;;5044532;28;20029;-61
2022/07/22 10:05:16;;;;;;;9.07;3.50;;;20.10;99.90;;;;;;5029281;28;20024;-60
2022/07/22 10:07:43;;;;;;;6.43;3.90;;;20.10;99.90;;;;;;5037901;28;20080;-61
2022/07/22 10:10:10;;;;;;;8.88;4.43;;;20.20;99.90;;;;;;5029999;28;20029;-61
2022/07/22 10:12:37;;;;;;;5.55;3.90;;;20.30;99.90;;;;;;5040531;28;20033;-61
2022/07/22 10:15:03;;;;;;;5.95;3.80;;;20.40;99.90;;;;;;5033795;28;20029;-61
2022/07/22 10:17:29;;;;;;;6.35;3.13;;;20.50;99.90;;;;;;5035974;28;20076;-61
2022/07/22 10:19:56;;;;;;;7.40;3.20;;;20.60;99.90;;;;;;5039480;28;20029;-61
2022/07/22 10:22:42;;;;;;;6.35;3.50;;;20.50;99.90;;;;;;5034032;28;20060;-61
2022/07/22 10:25:10;;;;;;;4.80;2.80;;;20.60;99.90;;;;;;5033521;28;20417;-61
2022/07/22 10:27:47;;;;;;;8.13;3.33;;;20.50;99.90;;;;;;5030662;28;20032;-61
2022/07/22 10:30:14;;;;;;;10.30;4.13;;;20.30;99.90;;;;;;5028792;28;20440;-61
2022/07/22 10:32:40;;;;;;;7.65;4.45;;;20.60;99.90;;;;;;5037424;28;20148;-61
2022/07/22 10:35:06;;;;;;;7.07;4.38;;;21.00;99.90;;;;;;5032417;28;20627;-62
2022/07/22 10:37:34;;;;;;;5.18;2.90;;;21.10;99.90;;;;;;5029341;28;20034;-61
2022/07/22 10:40:12;;;;;;;7.07;3.35;;;21.00;99.90;;;;;;5033076;28;20034;-61
2022/07/22 10:43:00;;;;;;;10.15;3.65;;;21.10;99.90;;;;;;5027204;28;20038;-61
2022/07/22 10:45:30;;;;;;;7.80;3.75;;;21.50;99.90;;;;;;5042441;28;20595;-62
2022/07/22 10:47:57;;;;;;;8.27;3.15;;;21.50;99.90;;;;;;5056168;28;20547;-61
2022/07/22 10:50:35;;;;;;;6.38;3.83;;;21.50;99.90;;;;;;5032036;28;20092;-62
2022/07/22 10:53:05;;;;;;;9.52;2.83;;;21.30;99.90;;;;;;5032939;28;20040;-61
2022/07/22 10:55:31;;;;;;;6.45;3.00;;;20.40;99.90;;;;;;5029478;28;20437;-61
2022/07/22 10:57:56;;;;;;;6.30;3.10;;;20.70;99.90;;;;;;5026999;28;20206;-61
2022/07/22 11:00:22;;;;;;;4.78;2.90;;;21.10;99.90;;;;;;5031688;28;20018;-62
2022/07/22 11:02:48;;;;;;;6.15;2.80;;;21.20;99.90;;;;;;5038843;28;20029;-61
2022/07/22 11:05:23;;;;;;;5.28;3.30;;;21.30;99.90;;;;;;5028014;28;20105;-62
2022/07/22 11:07:49;;;;;;;5.20;3.00;;;21.40;99.90;;;;;;5032082;28;20527;-61
2022/07/22 11:10:17;;;;;;;3.60;1.88;;;21.40;99.90;;;;;;5029377;28;20025;-61
2022/07/22 11:12:43;;;;;;;5.50;2.33;;;21.50;99.90;;;;;;5040728;28;20363;-61
2022/07/22 11:15:09;;;;;;;4.78;2.78;;;21.60;99.90;;;;;;5033651;28;20021;-61
2022/07/22 11:17:36;;;;;;;5.45;2.70;;;21.50;99.90;;;;;;5036494;28;20033;-61
2022/07/22 11:20:05;;;;;;;5.40;2.17;;;21.50;99.90;;;;;;5036143;28;20030;-61
2022/07/22 11:22:31;;;;;;;4.78;2.50;;;21.40;99.90;;;;;;5055081;28;20017;-61
2022/07/22 11:24:59;;;;;;;4.95;2.40;;;21.70;99.90;;;;;;5040020;28;20025;-61
2022/07/22 11:27:25;;;;;;;4.28;2.72;;;21.80;99.90;;;;;;5028972;28;20071;-62
2022/07/22 11:29:53;;;;;;;3.08;2.10;;;21.80;99.90;;;;;;5032188;28;20515;-61
2022/07/22 11:32:23;;;;;;;3.33;2.25;;;21.80;99.90;;;;;;5039980;28;20033;-61
2022/07/22 11:34:48;;;;;;;3.45;2.25;;;21.70;99.90;;;;;;5036383;28;20023;-62
2022/07/22 11:37:17;;;;;;;6.80;2.70;;;21.80;99.90;;;;;;5028134;28;20030;-62
2022/07/22 11:39:43;;;;;;;3.80;2.28;;;22.10;99.90;;;;;;5038607;28;20721;-61
2022/07/22 11:42:09;;;;;;;4.93;1.92;;;22.20;99.90;;;;;;5028960;28;20025;-62
2022/07/22 11:44:37;;;;;;;7.90;2.20;;;22.40;99.90;;;;;;5044367;28;20087;-61
2022/07/22 11:47:06;;;;;;;5.75;2.03;;;22.40;99.90;;;;;;5030761;28;20026;-61
2022/07/22 11:49:36;;;;;;;6.47;2.20;;;22.40;99.90;;;;;;5031638;28;20567;-62
2022/07/22 11:52:08;;;;;;;5.65;2.30;;;22.40;99.90;;;;;;5027914;28;20025;-62
2022/07/22 11:54:34;;;;;;;5.20;2.28;;;22.60;99.90;;;;;;5056344;28;20108;-61
2022/07/22 11:57:01;;;;;;;3.60;1.73;;;22.70;99.90;;;;;;5025322;28;20125;-61
2022/07/22 11:59:27;;;;;;;5.85;2.00;;;22.90;99.90;;;;;;5029854;28;20034;-61
2022/07/22 12:01:53;;;;;;;6.95;2.10;;;22.90;99.90;;;;;;5027474;28;20033;-61
2022/07/22 12:04:24;;;;;;;4.63;2.10;;;22.70;99.90;;;;;;5031356;28;20083;-61
2022/07/22 12:06:51;;;;;;;4.35;1.92;;;22.50;99.90;;;;;;5030826;28;20449;-61
2022/07/22 12:09:25;;;;;;;5.32;2.08;;;22.10;99.90;;;;;;5033344;28;20444;-61
2022/07/22 12:11:54;;;;;;;4.40;1.90;;;22.10;99.90;;;;;;5024232;28;20056;-61
2022/07/22 12:14:24;;;;;;;4.53;2.10;;;22.10;99.90;;;;;;5037768;28;20025;-61
2022/07/22 12:17:04;;;;;;;4.43;1.98;;;22.40;99.90;;;;;;5033074;28;20048;-61
2022/07/22 12:19:32;;;;;;;5.13;2.67;;;22.40;99.90;;;;;;5035706;28;20388;-62
2022/07/22 12:22:18;;;;;;;5.18;2.10;;;21.70;99.90;;;;;;5031006;28;20025;-62
2022/07/22 12:24:45;;;;;;;5.63;2.33;;;22.10;99.90;;;;;;5037640;28;20548;-62
2022/07/22 12:27:17;;;;;;;5.40;2.50;;;22.20;99.90;;;;;;5028685;28;20021;-62
2022/07/22 12:29:44;;;;;;;4.45;2.10;;;22.50;99.90;;;;;;5030153;28;20032;-61
2022/07/22 12:32:23;;;;;;;7.15;1.90;;;22.90;99.90;;;;;;5039606;28;20041;-61
2022/07/22 12:34:57;;;;;;;6.25;2.00;;;22.90;99.90;;;;;;5035875;28;20630;-62